Time;durP1;ratioP1;P1;durP2;ratioP2;P2;SDS_P1;SDS_P2;PMS_P1;PMS_P2;Temp;Humidity;BMP_temperature;BMP_pressure;BME280_temperature;BME280_humidity;BME280_pressure;Samples;Min_cycle;Max_cycle;Signal;HPM_P1;HPM_P2
2021/11/18 00:00:29;;;;;;;5.45;0.60;;;6.70;99.90;;;;;;5036770;28;20497;-75
2021/11/18 00:02:55;;;;;;;8.43;1.15;;;6.70;99.90;;;;;;5035333;28;20390;-75
2021/11/18 00:05:24;;;;;;;13.50;1.02;;;6.70;99.90;;;;;;5035229;28;20021;-76
2021/11/18 00:07:51;;;;;;;13.38;0.90;;;6.70;99.90;;;;;;5037065;28;20034;-75
2021/11/18 00:10:58;;;;;;;7.45;1.30;;;6.70;99.90;;;;;;5035377;28;20021;-75
2021/11/18 00:13:32;;;;;;;11.07;1.50;;;6.70;99.90;;;;;;5036166;28;20041;-75
2021/11/18 00:15:59;;;;;;;10.93;0.80;;;6.70;99.90;;;;;;5036554;28;20382;-76
2021/11/18 00:18:27;;;;;;;6.95;1.08;;;6.70;99.90;;;;;;5036349;28;20075;-78
2021/11/18 00:21:03;;;;;;;10.90;1.33;;;6.70;99.90;;;;;;5034981;28;20474;-77
2021/11/18 00:23:32;;;;;;;12.93;0.70;;;6.70;99.90;;;;;;5035430;28;20065;-77
2021/11/18 00:25:57;;;;;;;11.35;1.60;;;6.70;99.90;;;;;;5036890;28;20075;-75
2021/11/18 00:28:23;;;;;;;8.27;0.80;;;6.70;99.90;;;;;;5036266;28;20473;-78
2021/11/18 00:30:51;;;;;;;8.10;1.85;;;6.70;99.90;;;;;;5034681;28;20058;-77
2021/11/18 00:33:17;;;;;;;9.98;2.35;;;6.70;99.90;;;;;;5035824;28;20036;-77
2021/11/18 00:35:42;;;;;;;15.77;1.38;;;6.70;99.90;;;;;;5034770;28;20030;-77
2021/11/18 00:38:08;;;;;;;14.00;2.33;;;6.70;99.90;;;;;;5035975;28;20103;-78
2021/11/18 00:40:37;;;;;;;11.70;1.35;;;6.70;99.90;;;;;;5034761;28;20381;-75
2021/11/18 00:43:05;;;;;;;17.27;2.70;;;6.70;99.90;;;;;;5034654;28;20018;-77
2021/11/18 00:45:31;;;;;;;16.93;1.93;;;6.70;99.90;;;;;;5036199;28;20026;-78
2021/11/18 00:47:57;;;;;;;16.52;1.35;;;6.70;99.90;;;;;;5036424;28;20377;-77
2021/11/18 00:50:26;;;;;;;6.03;1.30;;;6.70;99.90;;;;;;5035786;28;20029;-76
2021/11/18 00:52:53;;;;;;;14.43;1.85;;;6.80;99.90;;;;;;5034410;28;20017;-77
2021/11/18 00:55:19;;;;;;;7.47;1.33;;;6.90;99.90;;;;;;5034470;28;20510;-76
2021/11/18 00:57:45;;;;;;;8.80;1.33;;;6.90;99.90;;;;;;5035839;28;20025;-76
2021/11/18 01:00:16;;;;;;;11.45;1.73;;;7.10;99.90;;;;;;5034752;28;20532;-76
2021/11/18 01:02:42;;;;;;;11.25;1.17;;;7.00;99.90;;;;;;5034874;28;20071;-76
2021/11/18 01:05:08;;;;;;;12.30;1.25;;;7.00;99.90;;;;;;5035490;28;20100;-76
2021/11/18 01:07:34;;;;;;;12.93;1.40;;;7.00;99.90;;;;;;5035252;28;20425;-77
2021/11/18 01:10:00;;;;;;;17.05;1.27;;;7.10;99.90;;;;;;5034539;28;20026;-77
2021/11/18 01:12:26;;;;;;;11.40;1.48;;;7.00;99.90;;;;;;5035331;28;20029;-77
2021/11/18 01:14:51;;;;;;;11.27;1.88;;;7.00;99.90;;;;;;5035138;28;20047;-77
2021/11/18 01:17:17;;;;;;;9.07;1.80;;;7.00;99.90;;;;;;5035443;28;20605;-78
2021/11/18 01:19:43;;;;;;;12.63;0.88;;;6.90;99.90;;;;;;5033814;28;20037;-77
2021/11/18 01:22:10;;;;;;;9.80;1.67;;;6.90;99.90;;;;;;5035043;28;20063;-77
2021/11/18 01:24:38;;;;;;;8.38;1.05;;;6.80;99.90;;;;;;5033880;28;20037;-77
2021/11/18 01:27:04;;;;;;;11.25;1.10;;;6.80;99.90;;;;;;5035066;28;20017;-77
2021/11/18 01:29:30;;;;;;;9.70;1.25;;;6.90;99.90;;;;;;5035092;28;20026;-77
2021/11/18 01:31:56;;;;;;;14.88;1.55;;;6.80;99.90;;;;;;5034926;28;20148;-76
2021/11/18 01:34:21;;;;;;;12.93;2.08;;;6.80;99.90;;;;;;5034087;28;20152;-78
2021/11/18 01:36:47;;;;;;;14.50;1.52;;;6.80;99.90;;;;;;5033211;28;20033;-77
2021/11/18 01:39:13;;;;;;;6.57;0.73;;;6.80;99.90;;;;;;5035273;28;20356;-77
2021/11/18 01:41:39;;;;;;;11.77;1.63;;;6.80;99.90;;;;;;5035031;28;20466;-77
2021/11/18 01:44:14;;;;;;;14.63;1.38;;;7.20;99.90;;;;;;5033736;28;20080;-76
2021/11/18 01:46:40;;;;;;;10.23;2.17;;;6.70;99.90;;;;;;5034699;28;20053;-77
2021/11/18 01:49:09;;;;;;;13.60;1.85;;;6.70;99.90;;;;;;5034568;28;20071;-77
2021/11/18 01:51:41;;;;;;;18.42;1.58;;;6.80;99.90;;;;;;5033373;28;20064;-77
2021/11/18 01:54:07;;;;;;;14.10;1.85;;;6.80;99.90;;;;;;5035057;28;20049;-77
2021/11/18 01:56:34;;;;;;;12.45;0.70;;;6.80;99.90;;;;;;5034513;28;20033;-77
2021/11/18 01:59:11;;;;;;;8.02;1.33;;;6.90;99.90;;;;;;5034476;28;20017;-77
2021/11/18 02:01:37;;;;;;;13.90;2.35;;;6.90;99.90;;;;;;5034650;28;20104;-77
2021/11/18 02:04:11;;;;;;;17.27;1.85;;;6.90;99.90;;;;;;5032985;28;20026;-77
2021/11/18 02:06:41;;;;;;;8.95;1.63;;;7.00;99.90;;;;;;5035049;28;20028;-76
2021/11/18 02:09:12;;;;;;;21.45;1.83;;;7.10;99.90;;;;;;5034444;28;20044;-76
2021/11/18 02:11:51;;;;;;;11.70;1.60;;;7.10;99.90;;;;;;5034390;28;20021;-77
2021/11/18 02:14:20;;;;;;;14.38;1.75;;;7.20;99.90;;;;;;5034234;28;20481;-77
2021/11/18 02:16:46;;;;;;;;;;;7.20;99.90;;;;;;5034606;28;20100;-76
2021/11/18 02:19:13;;;;;;;11.02;1.15;;;7.30;99.90;;;;;;5033207;28;20317;-76
2021/11/18 02:21:40;;;;;;;10.32;1.83;;;7.30;99.90;;;;;;5033010;28;20014;-77
2021/11/18 02:24:14;;;;;;;25.27;1.20;;;7.40;99.90;;;;;;5034265;28;20029;-77
2021/11/18 02:26:40;;;;;;;12.15;1.30;;;7.40;99.90;;;;;;5032861;28;20014;-77
2021/11/18 02:29:07;;;;;;;13.43;1.35;;;7.50;99.90;;;;;;5033050;28;20029;-77
2021/11/18 02:31:48;;;;;;;21.90;2.15;;;7.50;99.90;;;;;;5032664;28;20021;-77
2021/11/18 02:34:18;;;;;;;12.23;1.75;;;7.50;99.90;;;;;;5032652;28;20033;-77
2021/11/18 02:36:43;;;;;;;18.27;1.42;;;7.50;99.90;;;;;;5032756;28;20022;-77
2021/11/18 02:39:10;;;;;;;23.00;3.78;;;7.60;99.90;;;;;;5032654;28;20022;-77
2021/11/18 02:41:45;;;;;;;16.35;2.22;;;7.60;99.90;;;;;;5034227;28;20385;-77
2021/11/18 02:44:11;;;;;;;19.55;3.05;;;7.60;99.90;;;;;;5032479;28;20083;-78
2021/11/18 02:46:37;;;;;;;11.05;0.98;;;7.60;99.90;;;;;;5033501;28;20026;-78
2021/11/18 02:49:03;;;;;;;11.35;1.42;;;7.70;99.90;;;;;;5032428;28;20021;-78
2021/11/18 02:51:29;;;;;;;20.33;2.47;;;7.70;99.90;;;;;;5032753;28;20107;-78
2021/11/18 02:54:35;;;;;;;11.32;2.10;;;7.70;99.90;;;;;;5033461;28;20470;-78
2021/11/18 02:59:37;;;;;;;12.52;1.60;;;7.80;99.90;;;;;;5017533;28;20053;-80
2021/11/18 03:02:05;;;;;;;19.00;2.00;;;7.70;99.90;;;;;;5018756;28;20084;-80
2021/11/18 03:04:32;;;;;;;15.20;1.33;;;7.70;99.90;;;;;;5000145;28;20026;-79
2021/11/18 03:07:00;;;;;;;16.35;1.20;;;7.80;99.90;;;;;;5000280;28;20030;-79
2021/11/18 03:09:30;;;;;;;16.85;2.42;;;7.80;99.90;;;;;;5017625;28;20041;-79
2021/11/18 03:11:58;;;;;;;17.45;2.60;;;7.70;99.90;;;;;;5017786;28;20095;-80
2021/11/18 03:14:25;;;;;;;19.17;1.75;;;7.80;99.90;;;;;;5017538;28;20073;-79
2021/11/18 03:16:51;;;;;;;13.13;1.77;;;7.80;99.90;;;;;;5017088;28;20029;-79
2021/11/18 03:19:17;;;;;;;12.98;1.88;;;7.80;99.90;;;;;;5017128;28;20494;-79
2021/11/18 03:21:43;;;;;;;14.45;2.17;;;7.70;99.90;;;;;;5000073;28;20038;-80
2021/11/18 03:24:09;;;;;;;13.82;2.28;;;7.70;99.90;;;;;;5018152;28;20026;-80
2021/11/18 03:26:35;;;;;;;13.15;1.45;;;7.70;99.90;;;;;;5018000;28;20018;-80
2021/11/18 03:29:01;;;;;;;12.60;1.73;;;7.70;99.90;;;;;;5016804;28;20097;-80
2021/11/18 03:31:27;;;;;;;16.52;1.48;;;7.80;99.90;;;;;;4999185;28;20086;-79
2021/11/18 03:34:00;;;;;;;13.77;1.10;;;7.80;99.90;;;;;;5017993;28;20033;-79
2021/11/18 03:36:29;;;;;;;12.55;1.30;;;7.70;99.90;;;;;;5017638;28;20053;-79
2021/11/18 03:38:56;;;;;;;19.02;1.25;;;7.80;99.90;;;;;;4999409;28;20025;-79
2021/11/18 03:41:24;;;;;;;18.83;2.45;;;7.90;99.90;;;;;;5018037;28;20038;-79
2021/11/18 03:43:59;;;;;;;9.50;1.45;;;7.90;99.90;;;;;;5017000;28;20045;-79
2021/11/18 03:46:32;;;;;;;11.27;1.52;;;7.90;99.90;;;;;;5016853;28;20105;-79
2021/11/18 03:48:58;;;;;;;16.85;2.08;;;7.90;99.90;;;;;;4999103;28;20022;-79
2021/11/18 03:51:28;;;;;;;22.48;2.63;;;8.00;99.90;;;;;;5016865;28;20068;-79
2021/11/18 03:53:53;;;;;;;17.55;2.75;;;8.00;99.90;;;;;;5016910;28;20014;-79
2021/11/18 03:56:23;;;;;;;15.75;1.23;;;8.00;99.90;;;;;;4999375;28;20034;-80
2021/11/18 03:58:48;;;;;;;8.80;0.70;;;8.00;99.90;;;;;;5018314;28;20498;-80
2021/11/18 04:01:15;;;;;;;9.80;1.23;;;8.00;99.90;;;;;;5003274;28;20022;-79
2021/11/18 04:03:41;;;;;;;8.55;0.88;;;8.00;99.90;;;;;;5020122;28;20018;-80
2021/11/18 04:06:08;;;;;;;12.35;1.30;;;8.00;99.90;;;;;;5020186;28;20105;-79
2021/11/18 04:08:34;;;;;;;14.27;1.33;;;8.00;99.90;;;;;;5002751;28;20121;-77
2021/11/18 04:11:00;;;;;;;16.80;2.53;;;7.90;99.90;;;;;;5017215;28;20061;-78
2021/11/18 04:13:25;;;;;;;11.35;1.55;;;7.90;99.90;;;;;;4999031;28;20057;-77
2021/11/18 04:15:51;;;;;;;6.35;0.82;;;8.00;99.90;;;;;;5019768;28;20026;-79
2021/11/18 04:18:18;;;;;;;11.82;1.27;;;7.90;99.90;;;;;;5019861;28;20359;-79
2021/11/18 04:20:44;;;;;;;17.65;3.10;;;8.00;99.90;;;;;;5002049;28;20033;-80
2021/11/18 04:23:10;;;;;;;16.67;1.60;;;7.90;99.90;;;;;;5020164;28;20478;-80
2021/11/18 04:25:37;;;;;;;10.40;1.48;;;7.90;99.90;;;;;;5020011;28;20026;-79
2021/11/18 04:28:05;;;;;;;14.93;1.45;;;7.90;99.90;;;;;;5020065;28;20482;-80
2021/11/18 04:30:41;;;;;;;6.20;1.85;;;7.90;99.90;;;;;;5020152;28;20026;-79
2021/11/18 04:33:07;;;;;;;18.33;1.98;;;7.90;99.90;;;;;;5020235;28;20078;-79
2021/11/18 04:35:33;;;;;;;11.95;1.40;;;7.90;99.90;;;;;;5023395;28;20065;-78
2021/11/18 04:37:58;;;;;;;9.32;1.05;;;7.90;99.90;;;;;;5018824;28;20064;-79
2021/11/18 04:40:24;;;;;;;17.02;1.92;;;7.90;99.90;;;;;;5020795;28;20470;-79
2021/11/18 04:42:49;;;;;;;15.60;2.20;;;7.80;99.90;;;;;;5020019;28;20081;-79
2021/11/18 04:45:19;;;;;;;9.00;1.25;;;7.80;99.90;;;;;;5019809;28;20029;-80
2021/11/18 04:47:44;;;;;;;9.30;1.27;;;7.70;99.90;;;;;;5002140;28;20109;-80
2021/11/18 04:50:11;;;;;;;16.08;2.20;;;7.70;99.90;;;;;;5020331;28;20128;-80
2021/11/18 04:52:37;;;;;;;20.35;1.60;;;7.70;99.90;;;;;;5018974;28;20026;-79
2021/11/18 04:55:05;;;;;;;13.35;2.08;;;7.70;99.90;;;;;;5018718;28;20026;-79
2021/11/18 04:57:31;;;;;;;11.37;1.37;;;7.70;99.90;;;;;;5020417;28;20014;-79
2021/11/18 04:59:57;;;;;;;15.77;1.52;;;7.70;99.90;;;;;;5020294;28;20072;-80
2021/11/18 05:02:24;;;;;;;10.50;2.13;;;7.70;99.90;;;;;;5002286;28;20089;-80
2021/11/18 05:04:52;;;;;;;9.73;2.58;;;7.80;99.90;;;;;;5020659;28;20025;-80
2021/11/18 05:07:18;;;;;;;20.65;2.13;;;7.70;99.90;;;;;;5020971;28;20054;-79
2021/11/18 05:09:46;;;;;;;11.18;1.33;;;7.80;99.90;;;;;;5019761;28;20022;-79
2021/11/18 05:12:12;;;;;;;10.75;1.85;;;7.80;99.90;;;;;;5019840;28;20029;-79
2021/11/18 05:14:38;;;;;;;17.88;1.48;;;7.90;99.90;;;;;;5001484;28;20026;-79
2021/11/18 05:17:04;;;;;;;17.13;2.97;;;7.90;99.90;;;;;;5000790;28;20026;-79
2021/11/18 05:19:31;;;;;;;18.38;2.53;;;7.90;99.90;;;;;;5019400;28;20018;-79
2021/11/18 05:21:57;;;;;;;15.40;2.22;;;7.90;99.90;;;;;;5018960;28;20021;-79
2021/11/18 05:24:22;;;;;;;9.05;2.65;;;8.00;99.90;;;;;;4999846;28;20033;-77
2021/11/18 05:26:48;;;;;;;11.15;1.77;;;8.00;99.90;;;;;;5016092;28;20061;-79
2021/11/18 05:29:13;;;;;;;17.02;1.65;;;8.10;99.90;;;;;;5018621;28;20058;-79
2021/11/18 05:31:39;;;;;;;14.98;1.77;;;8.10;99.90;;;;;;5018314;28;20036;-79
2021/11/18 05:34:05;;;;;;;10.77;1.23;;;8.10;99.90;;;;;;5017916;28;20144;-77
2021/11/18 05:36:31;;;;;;;15.25;2.08;;;8.20;99.90;;;;;;5017029;28;20022;-79
2021/11/18 05:38:57;;;;;;;13.43;1.85;;;8.20;99.90;;;;;;4998005;28;20548;-79
2021/11/18 05:41:23;;;;;;;15.52;2.03;;;8.20;99.90;;;;;;5015814;28;20021;-79
2021/11/18 05:43:50;;;;;;;14.93;1.73;;;8.20;99.90;;;;;;5015573;28;20065;-79
2021/11/18 05:46:18;;;;;;;12.88;2.03;;;8.20;99.90;;;;;;4998216;28;20482;-79
2021/11/18 05:48:44;;;;;;;12.23;1.35;;;8.20;99.90;;;;;;4999214;28;20026;-79
2021/11/18 05:51:11;;;;;;;6.15;0.90;;;8.30;99.90;;;;;;5016144;28;20417;-80
2021/11/18 05:53:40;;;;;;;12.50;1.98;;;8.30;99.90;;;;;;5016180;28;20555;-79
2021/11/18 05:56:08;;;;;;;;;;;8.30;99.90;;;;;;5000332;28;20087;-80
2021/11/18 05:58:34;;;;;;;10.57;1.88;;;8.30;99.90;;;;;;5001532;28;20382;-80
2021/11/18 06:01:01;;;;;;;35.15;2.25;;;8.40;99.90;;;;;;4999993;28;20033;-79
2021/11/18 06:03:27;;;;;;;16.10;2.00;;;8.40;99.90;;;;;;5016093;28;20026;-80
2021/11/18 06:05:52;;;;;;;22.80;1.65;;;8.40;99.90;;;;;;5015786;28;20390;-79
2021/11/18 06:08:18;;;;;;;14.05;1.88;;;8.40;99.90;;;;;;5015183;28;20505;-79
2021/11/18 06:10:44;;;;;;;13.75;2.05;;;8.40;99.90;;;;;;5017501;28;20029;-79
2021/11/18 06:13:10;;;;;;;16.23;2.13;;;8.30;99.90;;;;;;5016226;28;20042;-79
2021/11/18 06:15:37;;;;;;;15.18;2.03;;;8.30;99.90;;;;;;4998242;28;20044;-79
2021/11/18 06:18:03;;;;;;;11.93;2.10;;;8.30;99.90;;;;;;4997423;28;20451;-79
2021/11/18 06:20:29;;;;;;;15.88;2.20;;;8.30;99.90;;;;;;5015757;28;20037;-79
2021/11/18 06:22:54;;;;;;;7.53;0.80;;;8.30;99.90;;;;;;5015337;28;20017;-79
2021/11/18 06:25:25;;;;;;;12.05;1.45;;;8.30;99.90;;;;;;4996733;28;20030;-76
2021/11/18 06:27:51;;;;;;;17.90;1.92;;;8.20;99.90;;;;;;5000692;28;20056;-82
2021/11/18 06:30:38;;;;;;;12.68;1.90;;;8.20;99.90;;;;;;5003052;28;20022;-82
2021/11/18 06:33:05;;;;;;;20.05;2.03;;;8.20;99.90;;;;;;5020603;28;20030;-83
2021/11/18 06:35:31;;;;;;;17.23;1.58;;;8.20;99.90;;;;;;5002419;28;20065;-82
2021/11/18 06:37:57;;;;;;;16.58;1.25;;;8.10;99.90;;;;;;5002117;28;20018;-82
2021/11/18 06:40:23;;;;;;;20.58;1.85;;;8.10;99.90;;;;;;5020202;28;20022;-82
2021/11/18 06:42:50;;;;;;;19.33;1.25;;;9.00;99.90;;;;;;5020699;28;20028;-82
2021/11/18 06:45:22;;;;;;;14.82;2.10;;;8.10;99.90;;;;;;5021878;28;20149;-81
2021/11/18 06:47:48;;;;;;;12.32;1.38;;;8.10;99.90;;;;;;5020489;28;20548;-82
2021/11/18 06:50:14;;;;;;;20.13;3.08;;;8.00;99.90;;;;;;5001766;28;20022;-82
2021/11/18 06:52:39;;;;;;;9.80;1.25;;;8.00;99.90;;;;;;5002173;28;20022;-83
2021/11/18 06:55:08;;;;;;;16.20;2.67;;;7.90;99.90;;;;;;5021171;28;20408;-82
2021/11/18 06:57:34;;;;;;;19.30;2.38;;;7.90;99.90;;;;;;5020887;28;20033;-83
2021/11/18 06:59:59;;;;;;;12.75;1.70;;;8.00;99.90;;;;;;5003010;28;20171;-81
2021/11/18 07:02:26;;;;;;;16.98;1.88;;;8.00;99.90;;;;;;5019691;28;20445;-81
2021/11/18 07:04:53;;;;;;;20.67;1.70;;;8.00;99.90;;;;;;5003716;28;20026;-83
2021/11/18 07:07:18;;;;;;;14.82;2.53;;;8.00;99.90;;;;;;5005346;28;20061;-82
2021/11/18 07:09:44;;;;;;;8.43;1.38;;;8.00;99.90;;;;;;5007093;28;20033;-82
2021/11/18 07:12:14;;;;;;;21.05;3.38;;;8.10;99.90;;;;;;5008781;28;20064;-82
2021/11/18 07:14:41;;;;;;;20.25;2.33;;;8.10;99.90;;;;;;5025952;28;20026;-82
2021/11/18 07:17:07;;;;;;;21.70;2.28;;;8.10;99.90;;;;;;5004281;28;20486;-81
2021/11/18 07:19:33;;;;;;;15.70;1.85;;;8.10;99.90;;;;;;5005187;28;20105;-82
2021/11/18 07:22:00;;;;;;;20.00;2.22;;;9.60;99.90;;;;;;5001649;28;20026;-83
2021/11/18 07:24:26;;;;;;;14.07;2.80;;;8.20;99.90;;;;;;5002797;28;20137;-83
2021/11/18 07:26:52;;;;;;;17.23;1.92;;;8.20;99.90;;;;;;5003878;28;20022;-82
2021/11/18 07:29:18;;;;;;;16.20;2.35;;;8.20;99.90;;;;;;5022132;28;20029;-83
2021/11/18 07:31:45;;;;;;;15.93;2.08;;;8.20;99.90;;;;;;5001869;28;20022;-83
2021/11/18 07:34:10;;;;;;;16.88;2.45;;;8.30;99.90;;;;;;5020669;28;20529;-79
2021/11/18 07:36:36;;;;;;;13.93;2.38;;;8.30;99.90;;;;;;5000300;28;20018;-79
2021/11/18 07:39:03;;;;;;;8.95;1.90;;;8.30;99.90;;;;;;5005036;28;20025;-81
2021/11/18 07:41:30;;;;;;;20.10;1.80;;;8.30;99.90;;;;;;5005620;28;20021;-80
2021/11/18 07:43:56;;;;;;;17.90;2.38;;;8.30;99.90;;;;;;5019010;28;20021;-81
2021/11/18 07:46:21;;;;;;;15.43;2.40;;;8.20;99.90;;;;;;5021840;28;20026;-80
2021/11/18 07:48:48;;;;;;;17.02;2.42;;;8.20;99.90;;;;;;5001835;28;20133;-80
2021/11/18 07:51:17;;;;;;;10.75;2.35;;;8.20;99.90;;;;;;5018771;28;20040;-80
2021/11/18 07:53:44;;;;;;;14.18;2.72;;;8.20;99.90;;;;;;5001856;28;20026;-79
2021/11/18 07:56:12;;;;;;;18.70;2.67;;;8.20;99.90;;;;;;5018613;28;20029;-80
2021/11/18 07:58:37;;;;;;;14.82;1.98;;;8.40;99.90;;;;;;5018435;28;20121;-80
2021/11/18 08:01:04;;;;;;;12.20;2.15;;;8.20;99.90;;;;;;5001184;28;20049;-79
2021/11/18 08:03:30;;;;;;;14.15;2.50;;;8.20;99.90;;;;;;5017575;28;20052;-79
2021/11/18 08:05:57;;;;;;;14.68;2.28;;;8.30;99.90;;;;;;5000183;28;20483;-79
2021/11/18 08:08:22;;;;;;;16.60;1.65;;;8.40;99.90;;;;;;5000586;28;20022;-79
2021/11/18 08:10:48;;;;;;;8.77;1.88;;;8.30;99.90;;;;;;5018088;28;20404;-80
2021/11/18 08:13:14;;;;;;;21.13;3.60;;;8.30;99.90;;;;;;5000441;28;20060;-79
2021/11/18 08:15:40;;;;;;;17.70;1.95;;;8.40;99.90;;;;;;5017616;28;20141;-80
2021/11/18 08:18:05;;;;;;;28.55;2.60;;;8.40;99.90;;;;;;5018391;28;20050;-79
2021/11/18 08:20:31;;;;;;;16.00;2.00;;;8.40;99.90;;;;;;4999588;28;20084;-80
2021/11/18 08:22:57;;;;;;;19.20;2.22;;;8.40;99.90;;;;;;5000858;28;20022;-80
2021/11/18 08:25:25;;;;;;;7.88;1.75;;;8.40;99.90;;;;;;5020473;28;20084;-80
2021/11/18 08:27:51;;;;;;;19.95;3.65;;;8.50;99.90;;;;;;5020559;28;20081;-80
2021/11/18 08:30:21;;;;;;;17.00;2.55;;;8.50;99.90;;;;;;5021148;28;20042;-80
2021/11/18 08:32:49;;;;;;;15.63;1.90;;;8.50;99.90;;;;;;5020889;28;20037;-80
2021/11/18 08:35:17;;;;;;;14.02;2.25;;;8.60;99.90;;;;;;5020715;28;20425;-80
2021/11/18 08:37:44;;;;;;;20.40;2.72;;;8.60;99.90;;;;;;5020138;28;20076;-79
2021/11/18 08:40:11;;;;;;;21.17;2.78;;;8.70;99.90;;;;;;5019647;28;20018;-81
2021/11/18 08:42:37;;;;;;;14.63;1.88;;;8.70;99.90;;;;;;5002926;28;20030;-81
2021/11/18 08:45:06;;;;;;;16.02;1.77;;;8.80;99.90;;;;;;5005268;28;20026;-81
2021/11/18 08:47:35;;;;;;;24.33;4.40;;;8.80;99.90;;;;;;5022229;28;20030;-80
2021/11/18 08:50:00;;;;;;;;;;;8.90;99.90;;;;;;5023115;28;20033;-80
2021/11/18 08:52:35;;;;;;;28.48;2.58;;;8.90;99.90;;;;;;5004595;28;19905;-81
2021/11/18 08:55:03;;;;;;;15.10;2.13;;;10.50;99.90;;;;;;5004500;28;20498;-81
2021/11/18 08:57:29;;;;;;;5.72;1.17;;;9.10;99.90;;;;;;5020801;28;20017;-80
2021/11/18 08:59:55;;;;;;;18.48;2.67;;;9.20;99.90;;;;;;5016534;28;20026;-77
2021/11/18 09:02:24;;;;;;;25.45;2.95;;;9.20;99.90;;;;;;5016111;28;20041;-79
2021/11/18 09:04:51;;;;;;;15.43;2.25;;;9.30;99.90;;;;;;5016644;28;20095;-80
2021/11/18 09:07:16;;;;;;;31.13;3.80;;;9.40;99.90;;;;;;4999120;28;20430;-79
2021/11/18 09:09:42;;;;;;;15.75;1.95;;;9.50;99.90;;;;;;4998499;28;20022;-78
2021/11/18 09:12:09;;;;;;;19.08;2.70;;;9.40;99.90;;;;;;5016215;28;20084;-77
2021/11/18 09:14:36;;;;;;;17.85;2.53;;;9.40;99.90;;;;;;4998622;28;20022;-79
2021/11/18 09:17:04;;;;;;;17.75;3.13;;;9.50;99.90;;;;;;5017336;28;20032;-79
2021/11/18 09:19:32;;;;;;;13.48;2.55;;;9.50;99.90;;;;;;4999461;28;20040;-81
2021/11/18 09:22:00;;;;;;;15.07;2.97;;;9.50;99.90;;;;;;5017703;28;20108;-80
2021/11/18 09:24:37;;;;;;;17.88;2.25;;;9.60;99.90;;;;;;4998747;28;20267;-78
2021/11/18 09:27:17;;;;;;;14.60;2.75;;;9.70;99.90;;;;;;5017056;28;20478;-81
2021/11/18 09:29:44;;;;;;;15.50;2.22;;;9.80;99.90;;;;;;5001473;28;20037;-80
2021/11/18 09:32:14;;;;;;;15.65;2.92;;;9.90;99.90;;;;;;5001929;28;20018;-81
2021/11/18 09:34:41;;;;;;;12.00;2.53;;;9.90;99.90;;;;;;5017981;28;20072;-79
2021/11/18 09:37:07;;;;;;;14.48;3.17;;;9.80;99.90;;;;;;5017644;28;20471;-80
2021/11/18 09:39:35;;;;;;;7.22;2.05;;;9.70;99.90;;;;;;5018421;28;20014;-79
2021/11/18 09:42:15;;;;;;;14.63;2.85;;;9.60;99.90;;;;;;5000129;28;20014;-79
2021/11/18 09:44:47;;;;;;;12.30;2.83;;;9.50;99.90;;;;;;5000280;28;20148;-79
2021/11/18 09:47:19;;;;;;;15.50;3.08;;;9.50;99.90;;;;;;4999648;28;20382;-79
2021/11/18 09:49:50;;;;;;;7.93;2.70;;;9.50;99.90;;;;;;4999131;28;20533;-79
2021/11/18 09:52:38;;;;;;;20.80;3.63;;;9.60;99.90;;;;;;5017298;28;20034;-78
2021/11/18 09:55:06;;;;;;;13.00;3.58;;;9.80;99.90;;;;;;4999566;28;20026;-79
2021/11/18 09:57:39;;;;;;;12.35;2.10;;;9.90;99.90;;;;;;4998988;28;20033;-79
2021/11/18 10:00:20;;;;;;;16.83;2.50;;;10.00;99.90;;;;;;5017393;28;20050;-79
2021/11/18 10:02:58;;;;;;;19.30;2.55;;;10.10;99.90;;;;;;5016340;28;20091;-79
2021/11/18 10:05:49;;;;;;;19.35;3.35;;;10.20;99.90;;;;;;4999369;28;20030;-80
2021/11/18 10:08:19;;;;;;;17.70;2.63;;;10.30;99.90;;;;;;4992647;28;20036;-79
2021/11/18 10:11:01;;;;;;;22.27;2.05;;;10.40;99.90;;;;;;5016606;28;20030;-79
2021/11/18 10:13:51;;;;;;;16.45;2.60;;;10.40;99.90;;;;;;5016467;28;20033;-79
2021/11/18 10:16:26;;;;;;;15.43;2.03;;;10.40;99.90;;;;;;4999150;28;20048;-79
2021/11/18 10:18:55;;;;;;;14.38;1.88;;;10.50;99.90;;;;;;4998722;28;20395;-79
2021/11/18 10:21:21;;;;;;;;;;;10.60;99.90;;;;;;5016625;28;20022;-79
2021/11/18 10:23:50;;;;;;;22.38;3.15;;;10.60;99.90;;;;;;4998960;28;19905;-80
2021/11/18 10:26:20;;;;;;;16.73;2.35;;;10.70;99.90;;;;;;4999169;28;20037;-79
2021/11/18 10:29:00;;;;;;;21.45;2.88;;;10.80;99.90;;;;;;4999205;28;20116;-79
2021/11/18 10:31:49;;;;;;;14.20;3.00;;;10.90;99.90;;;;;;4999646;28;20076;-80
2021/11/18 10:34:26;;;;;;;12.45;2.55;;;10.90;99.90;;;;;;4998563;28;20025;-79
2021/11/18 10:37:15;;;;;;;19.08;2.42;;;10.90;99.90;;;;;;5016785;28;20026;-79
2021/11/18 10:39:56;;;;;;;16.10;1.63;;;10.80;99.90;;;;;;4998969;28;20014;-79
2021/11/18 10:42:29;;;;;;;17.58;3.08;;;10.80;99.90;;;;;;4999271;28;20022;-79
2021/11/18 10:45:34;;;;;;;10.65;2.08;;;10.80;99.90;;;;;;5016633;28;20387;-79
2021/11/18 10:48:05;;;;;;;14.80;2.58;;;10.80;99.90;;;;;;4990234;28;20041;-79
2021/11/18 10:50:46;;;;;;;11.70;2.47;;;10.90;99.90;;;;;;5017307;28;20080;-79
2021/11/18 10:53:17;;;;;;;17.88;2.80;;;11.00;99.90;;;;;;4999483;28;20040;-79
2021/11/18 10:55:47;;;;;;;8.75;1.38;;;11.10;99.90;;;;;;5017162;28;20029;-80
2021/11/18 10:58:23;;;;;;;15.88;1.98;;;11.10;99.90;;;;;;5016647;28;20026;-79
2021/11/18 11:00:56;;;;;;;15.73;2.63;;;11.20;99.90;;;;;;5017576;28;20479;-79
2021/11/18 11:03:38;;;;;;;15.73;3.35;;;11.10;99.90;;;;;;5016315;28;20113;-79
2021/11/18 11:06:22;;;;;;;16.92;2.65;;;11.20;99.90;;;;;;4999652;28;20485;-79
2021/11/18 11:09:08;;;;;;;19.60;2.92;;;11.30;99.90;;;;;;5002834;28;20081;-79
2021/11/18 11:12:11;;;;;;;14.93;2.75;;;11.30;99.90;;;;;;4993356;28;20053;-79
2021/11/18 11:15:05;;;;;;;13.68;1.90;;;11.30;99.90;;;;;;4999543;28;20080;-79
2021/11/18 11:17:42;;;;;;;24.65;4.05;;;11.20;99.90;;;;;;5002733;28;20026;-79
2021/11/18 11:20:22;;;;;;;9.07;1.42;;;11.20;99.90;;;;;;5003077;28;20029;-79
2021/11/18 11:23:21;;;;;;;10.73;1.65;;;11.40;99.90;;;;;;5021350;28;20045;-79
2021/11/18 11:25:56;;;;;;;14.10;2.58;;;11.50;99.90;;;;;;5020435;28;20033;-79
2021/11/18 11:28:46;;;;;;;16.58;2.70;;;11.50;99.90;;;;;;5003203;28;20414;-80
2021/11/18 11:31:33;;;;;;;12.18;2.40;;;11.40;99.90;;;;;;5020994;28;20025;-79
2021/11/18 11:34:07;;;;;;;12.98;1.70;;;11.50;99.90;;;;;;5020276;28;20505;-79
2021/11/18 11:37:02;;;;;;;17.15;2.08;;;11.60;99.90;;;;;;5002483;28;20030;-80
2021/11/18 11:39:30;;;;;;;9.27;2.28;;;11.60;99.90;;;;;;5020405;28;20516;-79
2021/11/18 11:42:32;;;;;;;13.40;1.85;;;14.10;99.90;;;;;;5020447;28;20363;-79
2021/11/18 11:45:06;;;;;;;18.13;2.95;;;11.70;99.90;;;;;;5020669;28;20530;-80
2021/11/18 11:47:51;;;;;;;9.60;1.80;;;11.70;99.90;;;;;;5020110;28;20084;-79
2021/11/18 11:50:22;;;;;;;17.00;3.13;;;11.70;99.90;;;;;;5002000;28;20128;-79
2021/11/18 11:53:10;;;;;;;23.08;2.17;;;11.80;99.90;;;;;;5017353;28;20037;-80
2021/11/18 11:55:48;;;;;;;15.55;1.38;;;11.90;99.90;;;;;;5017283;28;20038;-79
2021/11/18 11:58:20;;;;;;;23.35;2.47;;;12.00;99.90;;;;;;5001814;28;20052;-79
2021/11/18 12:01:10;;;;;;;14.35;1.27;;;12.10;99.90;;;;;;5020194;28;20076;-79
2021/11/18 12:04:28;;;;;;;14.25;2.25;;;12.10;99.90;;;;;;5001601;28;20022;-78
2021/11/18 12:07:29;;;;;;;20.13;1.98;;;12.00;99.90;;;;;;4935636;28;20042;-80
2021/11/18 12:10:24;;;;;;;14.13;2.53;;;12.00;99.90;;;;;;4965948;28;20049;-79
2021/11/18 12:13:11;;;;;;;15.57;2.42;;;12.00;99.90;;;;;;5002134;28;20026;-79
2021/11/18 12:15:47;;;;;;;28.85;2.03;;;12.10;99.90;;;;;;5018063;28;20492;-79
2021/11/18 12:18:36;;;;;;;16.40;1.65;;;12.10;99.90;;;;;;5015604;28;20026;-79
2021/11/18 12:21:01;;;;;;;16.58;1.23;;;12.20;99.90;;;;;;5023223;28;20065;-78
2021/11/18 12:24:04;;;;;;;19.60;2.22;;;12.30;99.90;;;;;;5017581;28;20466;-78
2021/11/18 12:26:53;;;;;;;6.78;1.67;;;12.40;99.90;;;;;;5017515;28;20038;-79
2021/11/18 12:29:34;;;;;;;8.20;1.58;;;12.40;99.90;;;;;;5016883;28;20034;-79
2021/11/18 12:32:08;;;;;;;4.82;0.57;;;12.40;99.90;;;;;;5016736;28;20029;-79
2021/11/18 12:35:23;;;;;;;14.95;1.10;;;12.50;99.90;;;;;;4998976;28;20034;-78
2021/11/18 12:38:23;;;;;;;12.18;1.15;;;12.70;99.90;;;;;;4993192;28;20034;-79
2021/11/18 12:41:08;;;;;;;22.10;1.98;;;12.70;99.90;;;;;;5016424;28;20124;-78
2021/11/18 12:44:01;;;;;;;22.65;1.92;;;12.80;99.90;;;;;;5016806;28;20045;-78
2021/11/18 12:46:48;;;;;;;13.20;1.73;;;12.90;99.90;;;;;;5016741;28;20053;-79
2021/11/18 12:49:18;;;;;;;15.18;1.23;;;12.90;99.90;;;;;;4980290;28;20035;-79
2021/11/18 12:51:52;;;;;;;14.23;1.33;;;12.80;99.90;;;;;;4997566;28;20022;-79
2021/11/18 12:54:36;;;;;;;13.40;2.03;;;13.00;99.90;;;;;;4997384;28;20026;-78
2021/11/18 12:57:28;;;;;;;11.73;0.73;;;12.90;99.90;;;;;;5018211;28;20037;-78
2021/11/18 12:59:57;;;;;;;12.60;2.40;;;12.80;99.90;;;;;;4999867;28;20368;-79
2021/11/18 13:02:28;;;;;;;11.50;0.73;;;12.70;99.90;;;;;;5015538;28;20045;-79
2021/11/18 13:05:00;;;;;;;13.52;3.20;;;12.70;99.90;;;;;;4980506;28;20091;-80
2021/11/18 13:07:48;;;;;;;19.15;2.05;;;12.70;99.90;;;;;;4997022;28;20019;-78
2021/11/18 13:10:19;;;;;;;12.32;1.15;;;12.50;99.90;;;;;;5017394;28;20030;-79